Terminal Aerodrome Forecast
Issued by NWS

Home | Current Version | Previous Version | Text Only | Print | Product List | Glossary On
Versions: 1 2 3 4 5 6 7 8 9 10 11 12 13 14 15 16 17 18 19 20 21 22 23 24 25 26 27 28 29
728
FTUS45 KPSR 251442 AAB
TAFPHX
TAF AMD
KPHX 251442Z 2515/2612 11006KT P6SM BKN250
     FM252000 26006KT P6SM BKN180
     FM252300 27013G22KT P6SM SCT090 SCT140
     FM260200 28008KT P6SM FEW140
     FM260900 10006KT P6SM SKC=

USA.gov is the U.S. government's official web portal to all federal, state and local government web resources and services.